Time,TemperatureF,DewpointF,PressureIn,WindDirection,WindDirectionDegrees,WindSpeedMPH,WindSpeedGustMPH,Humidity,HourlyPrecipIn,Conditions,Clouds,dailyrainin,SoftwareType,DateUTC
2013-07-17 00:11:00,55.0,26.0,-100.00,WNW,296,0.0,0.0,33,0.00,,,-99.99,,2013-07-17 07:11:00,
2013-07-17 00:22:00,55.0,26.0,-100.00,WNW,296,0.0,0.0,33,0.00,,,-99.99,,2013-07-17 07:22:00,
2013-07-17 07:52:00,56.0,25.0,-100.00,ENE,61,0.0,3.0,30,-99.99,,,-99.99,,2013-07-17 14:52:00,
2013-07-17 08:01:00,56.0,25.0,-100.00,ENE,61,0.0,3.0,30,-99.99,,,-99.99,,2013-07-17 15:01:00,
2013-07-17 08:52:00,73.0,21.0,-100.00,NW,309,0.0,0.0,14,-99.99,,,-99.99,,2013-07-17 15:52:00,
2013-07-17 09:01:00,73.0,21.0,-100.00,NW,309,0.0,0.0,14,-99.99,,,-99.99,,2013-07-17 16:01:00,
2013-07-17 09:11:00,73.0,21.0,-100.00,NW,309,0.0,0.0,14,-99.99,,,-99.99,,2013-07-17 16:11:00,
2013-07-17 09:21:00,73.0,21.0,-100.00,NW,309,0.0,0.0,14,-99.99,,,-99.99,,2013-07-17 16:21:00,
2013-07-17 09:52:00,84.0,6.0,-100.00,West,265,1.0,3.0,5,0.00,,,0.00,,2013-07-17 16:52:00,
2013-07-17 10:11:00,84.0,6.0,-100.00,West,265,1.0,3.0,5,0.00,,,0.00,,2013-07-17 17:11:00,
2013-07-17 10:21:00,84.0,6.0,-100.00,West,265,1.0,3.0,5,0.00,,,0.00,,2013-07-17 17:21:00,
2013-07-17 14:01:00,94.0,8.0,-100.00,SSW,196,4.0,12.0,4,0.00,,,-99.99,,2013-07-17 21:01:00,
2013-07-17 14:11:00,94.0,8.0,-100.00,SSW,196,4.0,12.0,4,0.00,,,-99.99,,2013-07-17 21:11:00,
2013-07-17 15:21:00,96.0,9.0,-100.00,SW,218,4.0,12.0,4,0.00,,,0.00,,2013-07-17 22:21:00,
2013-07-17 16:22:00,96.0,9.0,-100.00,WNW,287,4.0,12.0,4,0.00,,,0.00,,2013-07-17 23:22:00,
2013-07-17 16:52:00,95.0,14.0,-100.00,South,180,3.0,15.0,5,0.00,,,0.00,,2013-07-17 23:52:00,
2013-07-17 17:01:00,95.0,14.0,-100.00,South,180,3.0,15.0,5,0.00,,,0.00,,2013-07-18 00:01:00,
2013-07-17 17:11:00,95.0,14.0,-100.00,South,180,3.0,15.0,5,0.00,,,0.00,,2013-07-18 00:11:00,
2013-07-17 17:22:00,95.0,14.0,-100.00,South,180,3.0,15.0,5,0.00,,,0.00,,2013-07-18 00:22:00,
2013-07-17 17:52:00,89.0,25.0,-100.00,NE,37,4.0,12.0,10,0.00,,,0.00,,2013-07-18 00:52:00,
2013-07-17 18:01:00,89.0,25.0,-100.00,NE,37,4.0,12.0,10,0.00,,,0.00,,2013-07-18 01:01:00,
2013-07-17 18:11:00,89.0,25.0,-100.00,NE,37,4.0,12.0,10,0.00,,,0.00,,2013-07-18 01:11:00,
2013-07-17 18:22:00,89.0,25.0,-100.00,NE,37,4.0,12.0,10,0.00,,,0.00,,2013-07-18 01:22:00,
2013-07-17 18:53:00,86.0,29.0,-100.00,NW,304,4.0,15.0,13,0.00,,,0.00,,2013-07-18 01:53:00,
2013-07-17 19:01:00,86.0,29.0,-100.00,NW,304,4.0,15.0,13,0.00,,,0.00,,2013-07-18 02:01:00,
2013-07-17 19:11:00,86.0,29.0,-100.00,NW,304,4.0,15.0,13,0.00,,,0.00,,2013-07-18 02:11:00,
2013-07-17 19:21:00,86.0,29.0,-100.00,NW,304,4.0,15.0,13,0.00,,,0.00,,2013-07-18 02:21:00,
2013-07-17 19:52:00,81.0,35.0,-100.00,NNW,343,3.0,13.0,19,0.00,,,0.00,,2013-07-18 02:52:00,
2013-07-17 20:01:00,81.0,35.0,-100.00,NNW,343,3.0,13.0,19,0.00,,,0.00,,2013-07-18 03:01:00,
2013-07-17 20:11:00,81.0,35.0,-100.00,NNW,343,3.0,13.0,19,0.00,,,0.00,,2013-07-18 03:11:00,
2013-07-17 20:22:00,81.0,35.0,-100.00,NNW,343,3.0,13.0,19,0.00,,,0.00,,2013-07-18 03:22:00,
2013-07-17 20:52:00,73.0,38.0,-100.00,North,352,1.0,10.0,28,0.00,,,0.00,,2013-07-18 03:52:00,
2013-07-17 21:02:00,73.0,38.0,-100.00,North,352,1.0,10.0,28,0.00,,,0.00,,2013-07-18 04:02:00,
2013-07-17 21:12:00,73.0,38.0,-100.00,North,352,1.0,10.0,28,0.00,,,0.00,,2013-07-18 04:12:00,
2013-07-17 21:22:00,73.0,38.0,-100.00,North,352,1.0,10.0,28,0.00,,,0.00,,2013-07-18 04:22:00,
2013-07-17 21:52:00,67.0,36.0,-100.00,WNW,291,0.0,5.0,32,0.00,,,0.00,,2013-07-18 04:52:00,
2013-07-17 22:01:00,67.0,36.0,-100.00,WNW,291,0.0,5.0,32,0.00,,,0.00,,2013-07-18 05:01:00,
2013-07-17 22:11:00,67.0,36.0,-100.00,WNW,291,0.0,5.0,32,0.00,,,0.00,,2013-07-18 05:11:00,
2013-07-17 22:21:00,67.0,36.0,-100.00,WNW,291,0.0,5.0,32,0.00,,,0.00,,2013-07-18 05:21:00,
2013-07-17 22:52:00,62.0,36.0,-100.00,NNW,339,0.0,4.0,38,0.00,,,0.00,,2013-07-18 05:52:00,
2013-07-17 23:01:00,62.0,36.0,-100.00,NNW,339,0.0,4.0,38,0.00,,,0.00,,2013-07-18 06:01:00,
2013-07-17 23:11:00,62.0,36.0,-100.00,NNW,339,0.0,4.0,38,0.00,,,0.00,,2013-07-18 06:11:00,
2013-07-17 23:22:00,62.0,36.0,-100.00,NNW,339,0.0,4.0,38,0.00,,,0.00,,2013-07-18 06:22:00,
2013-07-17 23:52:00,59.0,37.0,-100.00,NW,314,0.0,0.0,43,0.00,,,0.00,,2013-07-18 06:52:00,